Time;durP1;ratioP1;P1;durP2;ratioP2;P2;SDS_P1;SDS_P2;PMS_P1;PMS_P2;Temp;Humidity;BMP_temperature;BMP_pressure;BME280_temperature;BME280_humidity;BME280_pressure;Samples;Min_cycle;Max_cycle;Signal;HPM_P1;HPM_P2
2022/05/03 00:00:36;;;;;;;14.23;10.67;;;;;;;9.04;100.00;96257.59;5047762;28;20848;-76
2022/05/03 00:03:40;;;;;;;8.73;8.03;;;;;;;8.38;100.00;96212.41;5045253;28;20452;-76
2022/05/03 00:06:16;;;;;;;8.83;8.03;;;;;;;8.51;100.00;96274.66;5007341;28;20444;-76
2022/05/03 00:08:54;;;;;;;8.50;7.80;;;;;;;8.74;100.00;96272.59;5036932;28;20439;-76
2022/05/03 00:11:32;;;;;;;8.60;7.83;;;;;;;8.51;100.00;96271.25;5054694;28;21045;-76
2022/05/03 00:14:20;;;;;;;11.10;8.57;;;;;;;8.72;100.00;96264.25;5036863;28;20475;-76
2022/05/03 00:16:49;;;;;;;10.63;9.17;;;;;;;8.67;100.00;96232.78;5037020;28;20974;-76
2022/05/03 00:19:16;;;;;;;9.70;8.77;;;;;;;8.76;100.00;96253.84;5019698;28;20487;-76
2022/05/03 00:21:43;;;;;;;9.57;8.23;;;;;;;8.43;100.00;96222.03;5036974;28;20447;-76
2022/05/03 00:24:10;;;;;;;8.57;7.67;;;;;;;8.50;100.00;96223.06;5054065;28;20432;-76
2022/05/03 00:26:37;;;;;;;10.80;9.80;;;;;;;8.58;100.00;96272.34;5054240;28;20464;-76
2022/05/03 00:29:04;;;;;;;10.77;9.47;;;;;;;8.76;100.00;96254.59;5036446;28;20440;-76
2022/05/03 00:31:31;;;;;;;13.53;10.73;;;;;;;8.76;100.00;96273.06;5036658;28;20477;-76
2022/05/03 00:33:58;;;;;;;11.03;9.97;;;;;;;8.85;100.00;96260.63;5036602;28;20531;-76
2022/05/03 00:36:25;;;;;;;11.47;10.00;;;;;;;8.95;100.00;96261.34;5052782;28;20494;-76
2022/05/03 00:38:53;;;;;;;10.77;9.50;;;;;;;8.92;100.00;96260.13;5051178;28;20887;-76
2022/05/03 00:41:37;;;;;;;10.37;9.47;;;;;;;8.87;100.00;96255.03;5036538;28;20536;-76
2022/05/03 00:47:24;;;;;;;9.43;8.60;;;;;;;8.46;100.00;96208.22;5058201;28;20927;-76
2022/05/03 00:50:08;;;;;;;9.47;8.20;;;;;;;8.55;100.00;96261.66;5045565;28;20550;-76
2022/05/03 00:52:45;;;;;;;8.70;7.93;;;;;;;8.57;100.00;96247.09;5027871;28;20928;-76
2022/05/03 00:55:39;;;;;;;9.83;8.83;;;;;;;8.75;100.00;96263.59;5062074;28;20428;-76
2022/05/03 00:58:31;;;;;;;8.20;7.50;;;;;;;8.83;100.00;96265.44;5041004;28;20499;-76
2022/05/03 01:01:23;;;;;;;8.27;7.57;;;;;;;8.83;100.00;96260.19;5036138;28;20460;-76
2022/05/03 01:04:07;;;;;;;7.30;6.60;;;;;;;8.65;100.00;96242.09;5011119;28;20836;-76
2022/05/03 01:07:23;;;;;;;8.13;7.33;;;;;;;8.72;100.00;96258.19;5035512;28;20799;-76
2022/05/03 01:09:53;;;;;;;11.90;7.07;;;;;;;8.82;100.00;96258.63;5035330;28;20583;-76
2022/05/03 01:12:25;;;;;;;8.07;7.37;;;;;;;8.56;100.00;96244.75;5053027;28;21023;-76
2022/05/03 01:15:01;;;;;;;8.30;7.50;;;;;;;8.35;100.00;96259.69;5035245;28;20435;-76
2022/05/03 01:17:41;;;;;;;8.00;7.23;;;;;;;8.52;100.00;96264.91;5052857;28;20551;-76
2022/05/03 01:20:10;;;;;;;8.53;7.93;;;;;;;8.47;100.00;96251.91;5034786;28;20474;-76
2022/05/03 01:22:43;;;;;;;8.63;7.73;;;;;;;8.48;100.00;96254.22;5035202;28;20452;-76
2022/05/03 01:25:37;;;;;;;7.60;6.83;;;;;;;8.16;100.00;96221.28;5035597;28;20474;-76
2022/05/03 01:28:28;;;;;;;7.90;7.20;;;;;;;8.43;100.00;96249.13;5042676;28;20537;-76
2022/05/03 01:31:09;;;;;;;7.30;6.60;;;;;;;8.51;100.00;96252.81;5034973;28;20464;-76
2022/05/03 01:33:42;;;;;;;7.30;6.10;;;;;;;8.56;100.00;96240.28;5053006;28;20419;-76
2022/05/03 01:36:10;;;;;;;6.63;6.13;;;;;;;8.66;100.00;96247.03;5052415;28;20432;-76
2022/05/03 01:39:02;;;;;;;10.07;6.93;;;;;;;8.69;100.00;96246.44;5034802;28;21046;-76
2022/05/03 01:42:00;;;;;;;7.67;7.07;;;;;;;8.73;100.00;96247.34;5051298;28;20467;-76
2022/05/03 01:44:38;;;;;;;8.70;8.00;;;;;;;8.63;100.00;96239.78;5035177;28;20436;-76
2022/05/03 01:47:46;;;;;;;7.33;6.73;;;;;;;8.63;100.00;96239.00;5048466;28;20852;-76
2022/05/03 01:50:27;;;;;;;7.10;6.50;;;;;;;8.68;100.00;96238.81;5008974;28;20519;-76
2022/05/03 01:52:54;;;;;;;7.23;6.63;;;;;;;8.52;100.00;96239.31;5052587;28;20534;-76
2022/05/03 01:55:45;;;;;;;7.77;6.87;;;;;;;7.94;100.00;96210.91;5034797;28;20532;-76
2022/05/03 01:58:27;;;;;;;8.67;7.17;;;;;;;7.94;100.00;96234.59;5034510;28;20883;-76
2022/05/03 02:01:18;;;;;;;6.83;6.20;;;;;;;7.99;100.00;96232.59;5034734;28;20444;-76
2022/05/03 02:03:49;;;;;;;6.50;6.00;;;;;;;8.08;100.00;96232.59;5035567;28;20431;-76
2022/05/03 02:06:28;;;;;;;8.30;7.00;;;;;;;8.15;100.00;96226.84;5053147;28;20534;-76
2022/05/03 02:09:05;;;;;;;8.00;6.93;;;;;;;8.33;100.00;96238.91;5052717;28;20445;-76
2022/05/03 02:11:56;;;;;;;7.67;7.00;;;;;;;8.38;100.00;96227.44;5038549;28;20560;-76
2022/05/03 02:14:45;;;;;;;7.60;6.90;;;;;;;8.25;100.00;96198.31;5035165;28;20960;-76
2022/05/03 02:17:49;;;;;;;7.63;6.90;;;;;;;8.28;100.00;96237.22;5034555;28;20535;-76
2022/05/03 02:20:38;;;;;;;8.00;6.97;;;;;;;7.98;100.00;96201.31;5034171;28;20467;-76
2022/05/03 02:23:22;;;;;;;7.33;6.73;;;;;;;8.23;100.00;96228.69;5036201;28;20482;-76
2022/05/03 02:26:13;;;;;;;6.80;6.20;;;;;;;7.96;100.00;96219.28;5034684;28;20960;-76
2022/05/03 02:28:45;;;;;;;7.67;7.07;;;;;;;7.87;100.00;96226.41;5052323;28;20494;-76
2022/05/03 02:31:18;;;;;;;7.03;6.40;;;;;;;8.06;100.00;96229.50;5034539;28;20448;-76
2022/05/03 02:34:10;;;;;;;8.00;7.27;;;;;;;8.14;100.00;96230.53;5034680;28;20928;-76
2022/05/03 02:36:44;;;;;;;7.93;7.33;;;;;;;7.81;100.00;96182.91;5034259;28;20447;-76
2022/05/03 02:39:12;;;;;;;6.90;6.30;;;;;;;8.02;100.00;96202.25;5034490;28;20464;-76
2022/05/03 02:41:41;;;;;;;7.53;6.93;;;;;;;8.09;100.00;96228.09;5036661;28;20502;-76
2022/05/03 02:44:11;;;;;;;9.07;7.07;;;;;;;7.94;100.00;96201.16;5042156;28;20458;-76
2022/05/03 02:46:56;;;;;;;6.97;6.43;;;;;;;8.04;100.00;96215.88;5040887;28;20483;-76
2022/05/03 02:49:52;;;;;;;6.93;6.27;;;;;;;8.14;100.00;96222.66;5036993;28;20539;-76
2022/05/03 02:52:28;;;;;;;8.30;7.43;;;;;;;7.99;100.00;96231.81;5034066;28;20503;-76
2022/05/03 02:55:13;;;;;;;9.93;8.53;;;;;;;7.86;100.00;96203.78;5034114;28;20493;-76
2022/05/03 02:57:55;;;;;;;8.20;7.60;;;;;;;7.82;100.00;96223.94;5052068;28;20819;-74
2022/05/03 03:03:24;;;;;;;6.90;6.20;;;;;;;7.47;100.00;96218.66;5033893;28;20428;-75
2022/05/03 03:06:21;;;;;;;10.10;8.23;;;;;;;7.66;100.00;96223.63;5033448;28;20506;-75
2022/05/03 03:08:52;;;;;;;7.57;6.80;;;;;;;7.64;100.00;96205.53;5027240;28;20530;-75
2022/05/03 03:11:37;;;;;;;8.20;7.50;;;;;;;7.74;100.00;96222.06;5033694;28;20462;-75
2022/05/03 03:14:41;;;;;;;7.50;6.90;;;;;;;7.71;100.00;96218.19;5033738;28;20437;-75
2022/05/03 03:17:10;;;;;;;8.57;7.67;;;;;;;7.56;100.00;96203.66;5019364;28;20454;-75
2022/05/03 03:19:58;;;;;;;11.00;7.00;;;;;;;7.52;100.00;96215.13;5034684;28;20479;-75
2022/05/03 03:22:30;;;;;;;8.17;7.50;;;;;;;7.34;100.00;96211.66;5019162;28;20486;-75
2022/05/03 03:24:58;;;;;;;6.53;6.03;;;;;;;7.06;100.00;96196.16;5033439;28;20436;-75
2022/05/03 03:27:28;;;;;;;7.50;6.80;;;;;;;7.00;100.00;96184.25;5051456;28;20428;-75
2022/05/03 03:29:56;;;;;;;8.47;7.67;;;;;;;7.22;100.00;96216.78;5033519;28;20547;-75
2022/05/03 03:32:25;;;;;;;7.80;7.10;;;;;;;7.09;100.00;96216.59;5019068;28;21017;-75
2022/05/03 03:34:56;;;;;;;8.93;8.20;;;;;;;7.08;100.00;96206.41;5033477;28;20519;-75
2022/05/03 03:37:35;;;;;;;9.43;8.57;;;;;;;6.94;100.00;96182.84;5032988;28;20475;-75
2022/05/03 03:40:04;;;;;;;9.70;8.87;;;;;;;7.05;100.00;96184.09;5038934;28;20490;-75
2022/05/03 03:42:31;;;;;;;10.20;8.43;;;;;;;7.00;100.00;96186.88;5032959;28;20862;-75
2022/05/03 03:45:07;;;;;;;10.00;7.57;;;;;;;7.08;100.00;96203.75;5038322;28;20451;-75
2022/05/03 03:47:41;;;;;;;7.90;7.10;;;;;;;7.09;100.00;96213.97;5029401;28;20469;-75
2022/05/03 03:50:09;;;;;;;8.60;6.80;;;;;;;7.17;100.00;96217.69;5033119;28;20546;-75
2022/05/03 03:52:38;;;;;;;7.97;7.27;;;;;;;6.92;100.00;96187.63;5033109;28;20434;-75
2022/05/03 03:55:07;;;;;;;8.27;7.30;;;;;;;7.17;100.00;96216.91;5034825;28;20478;-75
2022/05/03 03:57:36;;;;;;;7.80;7.13;;;;;;;7.21;100.00;96221.28;5051545;28;20906;-75
2022/05/03 04:00:06;;;;;;;7.27;6.57;;;;;;;6.89;100.00;96174.34;5036615;28;20852;-75
2022/05/03 04:02:41;;;;;;;8.80;6.70;;;;;;;6.76;100.00;96213.56;5055081;28;20448;-75
2022/05/03 04:05:29;;;;;;;7.40;6.80;;;;;;;6.25;100.00;96214.09;5036837;28;20443;-75
2022/05/03 04:07:56;;;;;;;6.80;6.30;;;;;;;6.57;100.00;96201.75;5036596;28;20438;-75
2022/05/03 04:10:22;;;;;;;6.90;6.30;;;;;;;6.58;100.00;96190.16;5036448;28;20459;-75
2022/05/03 04:12:49;;;;;;;9.50;6.90;;;;;;;6.81;100.00;96204.75;5036444;28;20963;-75
2022/05/03 04:15:16;;;;;;;9.73;7.60;;;;;;;6.82;100.00;96201.84;5037135;28;20438;-75
2022/05/03 04:17:43;;;;;;;7.23;6.53;;;;;;;6.93;100.00;96210.19;5036939;28;20545;-75
2022/05/03 04:20:12;;;;;;;9.77;8.77;;;;;;;6.69;100.00;96217.72;5036237;28;20545;-75
2022/05/03 04:22:39;;;;;;;8.20;7.47;;;;;;;6.72;100.00;96186.34;5034429;28;20947;-75
2022/05/03 04:25:06;;;;;;;7.23;6.37;;;;;;;6.97;100.00;96216.41;5036271;28;20444;-75
2022/05/03 04:27:32;;;;;;;7.50;6.90;;;;;;;7.01;100.00;96211.31;5037482;28;20489;-75
2022/05/03 04:30:01;;;;;;;9.17;8.37;;;;;;;6.72;100.00;96196.09;5054047;28;21005;-75
2022/05/03 04:32:29;;;;;;;7.93;6.60;;;;;;;6.80;100.00;96226.84;5054161;28;20439;-75
2022/05/03 04:34:57;;;;;;;10.63;6.60;;;;;;;6.68;100.00;96198.56;5036183;28;20508;-75
2022/05/03 04:37:23;;;;;;;8.70;7.17;;;;;;;6.71;100.00;96203.19;5036078;28;20443;-75
2022/05/03 04:39:50;;;;;;;8.10;7.43;;;;;;;6.67;100.00;96185.69;5035969;28;20482;-75
2022/05/03 04:42:18;;;;;;;9.07;8.27;;;;;;;6.90;100.00;96229.22;5053081;28;20939;-75
2022/05/03 04:44:45;;;;;;;9.03;8.13;;;;;;;6.52;100.00;96186.88;5006947;28;20476;-75
2022/05/03 04:47:11;;;;;;;9.23;7.90;;;;;;;6.47;100.00;96187.03;5032911;28;20452;-75
2022/05/03 04:49:38;;;;;;;8.40;7.60;;;;;;;6.77;100.00;96204.59;5007038;28;20996;-75
2022/05/03 04:52:05;;;;;;;7.73;7.00;;;;;;;6.41;100.00;96190.84;5037124;28;20810;-75
2022/05/03 04:54:32;;;;;;;8.90;8.00;;;;;;;6.58;100.00;96229.56;5053552;28;20440;-76
2022/05/03 04:57:01;;;;;;;9.20;8.30;;;;;;;6.50;100.00;96202.16;5036613;28;20543;-76
2022/05/03 04:59:28;;;;;;;8.80;8.00;;;;;;;6.81;100.00;96236.28;5035714;28;20521;-76
2022/05/03 05:01:55;;;;;;;9.43;8.53;;;;;;;7.02;100.00;96233.88;5036315;28;20435;-75
2022/05/03 05:04:22;;;;;;;8.97;8.10;;;;;;;6.85;100.00;96210.19;5035596;28;20436;-75
2022/05/03 05:06:49;;;;;;;8.10;7.33;;;;;;;7.07;100.00;96234.50;5035810;28;20995;-75
2022/05/03 05:09:19;;;;;;;9.30;8.40;;;;;;;7.18;100.00;96242.13;5034571;28;20940;-75
2022/05/03 05:11:47;;;;;;;9.40;8.60;;;;;;;7.35;100.00;96242.19;5053312;28;20526;-75
2022/05/03 05:14:14;;;;;;;9.50;8.30;;;;;;;7.16;100.00;96225.88;5035532;28;20463;-75
2022/05/03 05:16:41;;;;;;;8.60;7.87;;;;;;;7.33;100.00;96244.31;5035514;28;20432;-75
2022/05/03 05:19:08;;;;;;;8.20;7.40;;;;;;;6.97;100.00;96224.28;5053181;28;20478;-75
2022/05/03 05:21:35;;;;;;;10.60;8.77;;;;;;;7.16;100.00;96216.13;5035247;28;20463;-75
2022/05/03 05:24:01;;;;;;;9.33;8.57;;;;;;;7.60;100.00;96246.66;5035353;28;20570;-75
2022/05/03 05:26:28;;;;;;;9.43;8.73;;;;;;;7.44;100.00;96252.69;5053443;28;20797;-75
2022/05/03 05:28:57;;;;;;;10.43;9.20;;;;;;;7.36;100.00;96220.81;5053821;28;20456;-75
2022/05/03 05:31:23;;;;;;;9.50;8.60;;;;;;;7.53;100.00;96229.81;5036043;28;20506;-75
2022/05/03 05:33:50;;;;;;;10.60;9.70;;;;;;;7.28;100.00;96171.63;5038993;28;20508;-75
2022/05/03 05:36:17;;;;;;;10.63;9.17;;;;;;;7.47;100.00;96199.47;5036208;28;20443;-75
2022/05/03 05:38:43;;;;;;;9.93;8.97;;;;;;;7.72;100.00;96244.19;5053673;28;20475;-75
2022/05/03 05:41:12;;;;;;;9.47;8.67;;;;;;;7.77;100.00;96238.03;5036830;28;20471;-75
2022/05/03 05:43:39;;;;;;;9.00;8.20;;;;;;;7.99;100.00;96253.63;5053112;28;20435;-75
2022/05/03 05:46:07;;;;;;;8.83;8.03;;;;;;;7.65;100.00;96198.41;5035457;28;20435;-75
2022/05/03 05:48:34;;;;;;;8.80;8.10;;;;;;;8.07;100.00;96248.69;5033697;28;20439;-75
2022/05/03 05:51:00;;;;;;;9.30;8.47;;;;;;;8.39;100.00;96258.72;5034519;28;20452;-75
2022/05/03 05:53:33;;;;;;;10.10;9.30;;;;;;;8.89;100.00;96268.66;5021199;28;20955;-75
2022/05/03 05:56:00;;;;;;;9.33;8.53;;;;;;;9.02;100.00;96251.88;5042172;28;20428;-75
2022/05/03 05:58:27;;;;;;;10.77;9.67;;;;;;;8.76;100.00;96241.44;5034584;28;20459;-76
2022/05/03 06:00:54;;;;;;;12.50;10.70;;;;;;;8.96;100.00;96271.59;5034182;28;20495;-74
2022/05/03 06:03:22;;;;;;;14.97;10.83;;;;;;;9.05;100.00;96253.09;5052016;28;20488;-74
2022/05/03 06:05:49;;;;;;;11.77;10.67;;;;;;;9.18;100.00;96266.06;5034121;28;20473;-74
2022/05/03 06:08:16;;;;;;;10.57;9.40;;;;;;;9.00;100.00;96234.81;5034783;28;20454;-74
2022/05/03 06:10:43;;;;;;;10.90;9.93;;;;;;;9.03;100.00;96240.22;5034030;28;20444;-75
2022/05/03 06:13:10;;;;;;;11.00;9.90;;;;;;;9.31;100.00;96247.69;5033941;28;20450;-74
2022/05/03 06:15:37;;;;;;;10.53;9.53;;;;;;;9.33;100.00;96269.25;5034066;28;20451;-75
2022/05/03 06:18:06;;;;;;;12.23;9.67;;;;;;;9.31;100.00;96245.03;5034248;28;20993;-74
2022/05/03 06:20:33;;;;;;;10.90;10.00;;;;;;;9.37;100.00;96260.38;5051413;28;20745;-74
2022/05/03 06:23:00;;;;;;;11.03;10.13;;;;;;;9.66;100.00;96278.06;5050742;28;20436;-75
2022/05/03 06:25:27;;;;;;;10.30;9.40;;;;;;;9.50;100.00;96265.75;5052130;28;20428;-75
2022/05/03 06:27:53;;;;;;;10.97;10.00;;;;;;;9.52;100.00;96239.81;5033842;28;20539;-75
2022/05/03 06:30:20;;;;;;;11.40;10.40;;;;;;;9.81;100.00;96260.09;5034355;28;20463;-75
2022/05/03 06:32:47;;;;;;;11.80;10.80;;;;;;;10.18;100.00;96284.81;5042927;28;20451;-75
2022/05/03 06:35:14;;;;;;;10.10;9.30;;;;;;;10.25;100.00;96272.63;5058057;28;20443;-74
2022/05/03 06:37:42;;;;;;;10.80;9.80;;;;;;;10.38;100.00;96285.91;5038214;28;20431;-75
2022/05/03 06:40:10;;;;;;;12.60;11.50;;;;;;;10.59;100.00;96287.41;5034197;28;21002;-74
2022/05/03 06:42:38;;;;;;;10.80;9.90;;;;;;;10.58;100.00;96263.94;5034043;28;20523;-75
2022/05/03 06:45:06;;;;;;;9.60;8.70;;;;;;;10.56;100.00;96261.63;5033714;28;20451;-75
2022/05/03 06:47:33;;;;;;;9.80;8.90;;;;;;;10.91;100.00;96293.75;5047665;28;20428;-75
2022/05/03 06:50:00;;;;;;;11.67;10.50;;;;;;;10.74;100.00;96267.50;5033438;28;20534;-75
2022/05/03 06:52:27;;;;;;;24.07;13.90;;;;;;;10.48;100.00;96257.19;5033499;28;20539;-75
2022/05/03 06:54:54;;;;;;;18.27;15.27;;;;;;;10.68;100.00;96265.38;5051542;28;20816;-75
2022/05/03 06:57:21;;;;;;;21.87;15.17;;;;;;;11.18;100.00;96292.34;5049976;28;20450;-75
2022/05/03 06:59:47;;;;;;;21.13;14.50;;;;;;;11.25;100.00;96291.81;5033379;28;20565;-75
2022/05/03 07:02:15;;;;;;;13.13;11.73;;;;;;;10.97;100.00;96289.03;5033465;28;20447;-75
2022/05/03 07:04:46;;;;;;;13.17;12.13;;;;;;;11.06;100.00;96297.63;5033407;28;20428;-75
2022/05/03 07:07:13;;;;;;;12.80;10.93;;;;;;;11.26;100.00;96269.53;5033319;28;20498;-75
2022/05/03 07:09:41;;;;;;;11.23;9.20;;;;;;;11.72;100.00;96294.72;5033016;28;21024;-75
2022/05/03 07:12:09;;;;;;;9.43;8.63;;;;;;;11.81;100.00;96292.00;5033238;28;20528;-75
2022/05/03 07:14:35;;;;;;;9.33;8.53;;;;;;;11.84;100.00;96270.91;5033048;28;20472;-75
2022/05/03 07:17:03;;;;;;;10.63;9.07;;;;;;;11.97;100.00;96276.94;5033138;28;20966;-75
2022/05/03 07:25:01;;;;;;;8.40;7.73;;;;;;;11.69;100.00;96292.75;5033131;28;20490;-74
2022/05/03 07:27:28;;;;;;;13.30;9.60;;;;;;;11.83;100.00;96266.69;5033094;28;20472;-75
2022/05/03 07:29:55;;;;;;;12.53;9.70;;;;;;;12.31;100.00;96304.78;5051003;28;20449;-75
2022/05/03 07:32:21;;;;;;;9.70;8.70;;;;;;;12.38;100.00;96281.09;5033021;28;20820;-75
2022/05/03 07:34:48;;;;;;;11.70;9.90;;;;;;;12.80;100.00;96304.53;5055116;28;20429;-74
2022/05/03 07:37:15;;;;;;;11.23;10.23;;;;;;;12.28;100.00;96265.66;5036877;28;20444;-74
2022/05/03 07:39:41;;;;;;;10.90;9.80;;;;;;;12.69;100.00;96306.16;5036602;28;20931;-74
2022/05/03 07:42:08;;;;;;;11.70;9.97;;;;;;;12.73;100.00;96299.06;5053420;28;20441;-75
2022/05/03 07:44:34;;;;;;;12.20;9.33;;;;;;;12.51;100.00;96273.84;5037041;28;20443;-75
2022/05/03 07:47:02;;;;;;;11.37;10.27;;;;;;;12.98;100.00;96297.03;5033183;28;20447;-74
2022/05/03 07:49:29;;;;;;;10.37;9.37;;;;;;;13.21;100.00;96297.22;5036607;28;20432;-74
2022/05/03 07:51:56;;;;;;;10.37;9.40;;;;;;;13.22;100.00;96301.41;5034910;28;20887;-74
2022/05/03 07:54:22;;;;;;;13.93;9.50;;;;;;;13.24;100.00;96313.25;5054448;28;20424;-75
2022/05/03 07:56:52;;;;;;;11.80;10.80;;;;;;;13.12;100.00;96308.00;5036467;28;20437;-75
2022/05/03 07:59:23;;;;;;;11.50;9.50;;;;;;;13.41;100.00;96290.88;5043749;28;20549;-75
2022/05/03 08:01:49;;;;;;;11.00;9.20;;;;;;;13.37;100.00;96298.00;5037006;28;21012;-74
2022/05/03 08:04:16;;;;;;;10.10;9.03;;;;;;;13.57;100.00;96293.50;5054565;28;20474;-75
2022/05/03 08:06:43;;;;;;;13.90;8.83;;;;;;;13.54;100.00;96289.66;5036677;28;21018;-75
2022/05/03 08:09:10;;;;;;;10.43;9.40;;;;;;;13.95;100.00;96326.59;5033733;28;20512;-75
2022/05/03 08:11:41;;;;;;;10.70;9.70;;;;;;;13.94;100.00;96336.44;5036981;28;20464;-75
2022/05/03 08:14:08;;;;;;;9.03;8.27;;;;;;;13.79;100.00;96306.13;5036603;28;21014;-75
2022/05/03 08:16:35;;;;;;;8.37;7.77;;;;;;;14.00;100.00;96335.03;5036476;28;20436;-75
2022/05/03 08:19:02;;;;;;;9.60;8.80;;;;;;;14.06;100.00;96333.66;5036156;28;21003;-75
2022/05/03 08:21:28;;;;;;;10.17;9.27;;;;;;;14.45;100.00;96336.38;5036560;28;20541;-74
2022/05/03 08:23:55;;;;;;;9.13;8.23;;;;;;;14.44;100.00;96329.53;5054533;28;20522;-74
2022/05/03 08:26:22;;;;;;;9.50;8.87;;;;;;;14.28;100.00;96313.59;5036429;28;20467;-74
2022/05/03 08:28:49;;;;;;;19.03;9.60;;;;;;;14.76;100.00;96338.88;5041540;28;20555;-75
2022/05/03 08:31:15;;;;;;;11.90;7.17;;;;;;;14.67;100.00;96317.03;5056429;28;20460;-74
2022/05/03 08:33:44;;;;;;;9.10;8.40;;;;;;;14.93;100.00;96342.97;5038405;28;20449;-74
2022/05/03 08:36:11;;;;;;;12.37;8.87;;;;;;;15.02;100.00;96324.13;5038849;28;20477;-74
2022/05/03 08:44:12;;;;;;;9.33;8.60;;;;;;;15.13;100.00;96309.09;5028690;28;20450;-74
2022/05/03 08:46:42;;;;;;;9.33;8.43;;;;;;;15.54;100.00;96346.66;5031892;28;20470;-74
2022/05/03 08:49:13;;;;;;;8.57;7.87;;;;;;;15.31;100.00;96307.47;5036702;28;20487;-74
2022/05/03 08:51:43;;;;;;;9.13;8.20;;;;;;;15.55;100.00;96321.53;5053000;28;20482;-74
2022/05/03 08:54:11;;;;;;;9.33;8.43;;;;;;;15.78;100.00;96340.97;5054306;28;20436;-75
2022/05/03 08:56:38;;;;;;;7.97;7.20;;;;;;;15.79;100.00;96337.16;5054506;28;20881;-74
2022/05/03 08:59:05;;;;;;;10.17;8.97;;;;;;;15.66;100.00;96319.84;5036356;28;20437;-74
2022/05/03 09:01:31;;;;;;;11.40;10.30;;;;;;;16.00;100.00;96302.00;5052275;28;20540;-74
2022/05/03 09:03:58;;;;;;;8.17;7.47;;;;;;;16.36;100.00;96348.59;5044549;28;20823;-75
2022/05/03 09:06:59;;;;;;;8.47;7.77;;;;;;;16.68;100.00;96332.19;5035475;28;20452;-75
2022/05/03 09:09:25;;;;;;;8.13;7.50;;;;;;;16.73;100.00;96321.97;5009342;28;20801;-75
2022/05/03 09:11:57;;;;;;;9.57;8.60;;;;;;;16.40;100.00;96343.28;5036283;28;20520;-75
2022/05/03 09:14:42;;;;;;;7.97;7.27;;;;;;;16.31;100.00;96346.25;5022645;28;21032;-75
2022/05/03 09:17:08;;;;;;;8.07;7.27;;;;;;;16.78;100.00;96310.16;5036075;28;20954;-75
2022/05/03 09:19:35;;;;;;;7.47;6.87;;;;;;;17.14;98.08;96330.75;5035661;28;20996;-75
2022/05/03 09:25:04;;;;;;;7.83;7.13;;;;;;;17.12;92.71;96305.53;5046260;28;20436;-74
2022/05/03 09:27:31;;;;;;;7.17;6.60;;;;;;;17.27;94.04;96333.16;5036106;28;20429;-75
2022/05/03 09:30:09;;;;;;;8.23;7.40;;;;;;;17.16;92.83;96333.06;5035897;28;20457;-75
2022/05/03 09:32:40;;;;;;;6.50;6.00;;;;;;;17.63;92.37;96329.63;5053388;28;20426;-75
2022/05/03 09:35:31;;;;;;;6.60;6.10;;;;;;;17.87;92.68;96333.59;5035195;28;20479;-75
2022/05/03 09:37:58;;;;;;;7.70;7.00;;;;;;;17.78;87.66;96313.69;5035182;28;20460;-75
2022/05/03 09:40:25;;;;;;;7.10;6.50;;;;;;;17.97;88.21;96306.16;5048853;28;20457;-75
2022/05/03 09:42:54;;;;;;;6.43;5.93;;;;;;;17.98;88.30;96337.13;5043858;28;20863;-75
2022/05/03 09:45:25;;;;;;;7.83;7.10;;;;;;;17.78;87.69;96332.41;5052910;28;20518;-75
2022/05/03 09:47:53;;;;;;;6.60;6.10;;;;;;;17.43;86.42;96336.34;5034904;28;20433;-75
2022/05/03 09:50:29;;;;;;;7.20;6.70;;;;;;;17.62;88.53;96338.00;5039272;28;20989;-75
2022/05/03 09:52:57;;;;;;;6.70;6.20;;;;;;;17.63;87.41;96340.31;5059389;28;20945;-75
2022/05/03 09:55:29;;;;;;;6.10;5.60;;;;;;;17.76;85.62;96334.69;5037142;28;20430;-74
2022/05/03 09:58:01;;;;;;;5.50;5.00;;;;;;;17.75;77.42;96333.16;5034655;28;20430;-75
2022/05/03 10:00:28;;;;;;;6.10;5.70;;;;;;;17.80;76.39;96341.59;5035957;28;20496;-75
2022/05/03 10:02:54;;;;;;;5.20;4.80;;;;;;;17.85;71.56;96319.06;5034687;28;20434;-75
2022/05/03 10:05:22;;;;;;;6.77;5.30;;;;;;;18.00;69.01;96340.19;5034326;28;20437;-75
2022/05/03 10:07:50;;;;;;;6.20;5.50;;;;;;;17.82;69.38;96335.88;5034338;28;20460;-75
2022/05/03 10:10:17;;;;;;;6.23;5.63;;;;;;;17.81;70.60;96320.97;5052145;28;20448;-75
2022/05/03 10:12:44;;;;;;;6.30;5.70;;;;;;;17.75;71.48;96301.81;5034683;28;20433;-75
2022/05/03 10:15:13;;;;;;;6.70;6.10;;;;;;;17.96;69.28;96335.97;5035420;28;20969;-74
2022/05/03 10:20:42;;;;;;;6.30;5.47;;;;;;;18.00;69.74;96329.47;5053089;28;20472;-75
2022/05/03 10:23:19;;;;;;;7.17;5.60;;;;;;;18.16;69.30;96331.88;5007803;28;20449;-75
2022/05/03 10:25:46;;;;;;;5.27;4.80;;;;;;;18.57;65.92;96332.44;5034681;28;20417;-73
2022/05/03 10:28:13;;;;;;;5.23;4.83;;;;;;;18.46;67.57;96322.81;5034715;28;20858;-73
2022/05/03 10:31:05;;;;;;;5.30;4.90;;;;;;;18.12;68.49;96303.53;5034221;28;20456;-73
2022/05/03 10:33:32;;;;;;;5.93;5.43;;;;;;;17.95;69.38;96316.47;5051981;28;20449;-74
2022/05/03 10:36:00;;;;;;;6.80;6.20;;;;;;;17.83;70.21;96316.78;5051547;28;20540;-74
2022/05/03 10:38:38;;;;;;;5.90;5.50;;;;;;;17.80;69.51;96306.06;5033642;28;20524;-74
2022/05/03 10:41:05;;;;;;;6.73;6.23;;;;;;;17.44;70.25;96273.72;5051384;28;20904;-74
2022/05/03 10:43:35;;;;;;;7.50;6.50;;;;;;;17.39;71.55;96266.81;5034144;28;20429;-73
2022/05/03 10:46:12;;;;;;;6.93;6.23;;;;;;;17.50;71.35;96295.53;5033566;28;20442;-73
2022/05/03 10:48:44;;;;;;;6.93;6.33;;;;;;;17.61;70.94;96307.81;5033611;28;20495;-73
2022/05/03 10:51:13;;;;;;;5.97;5.57;;;;;;;17.33;72.47;96264.84;5033469;28;20491;-73
2022/05/03 10:53:41;;;;;;;6.40;5.80;;;;;;;17.71;71.74;96303.72;5051508;28;20850;-74
2022/05/03 10:56:12;;;;;;;6.30;5.70;;;;;;;17.36;71.78;96304.19;5033705;28;20464;-74
2022/05/03 10:58:40;;;;;;;6.53;5.73;;;;;;;17.24;71.90;96286.56;5021016;28;20512;-74
2022/05/03 11:01:20;;;;;;;7.37;6.70;;;;;;;17.31;70.98;96296.53;5033758;28;20570;-73
2022/05/03 11:03:47;;;;;;;8.07;5.97;;;;;;;17.43;70.69;96291.66;5034105;28;20439;-74
2022/05/03 11:06:18;;;;;;;11.60;5.73;;;;;;;17.56;69.61;96300.16;5037118;28;20421;-74
2022/05/03 11:11:36;;;;;;;5.73;5.20;;;;;;;17.79;70.39;96285.81;5037440;28;20464;-74
2022/05/03 11:14:02;;;;;;;6.47;5.97;;;;;;;17.90;69.67;96290.09;5055662;28;20433;-73
2022/05/03 11:16:34;;;;;;;6.00;5.60;;;;;;;18.13;69.71;96289.03;5037642;28;20479;-73
2022/05/03 11:19:12;;;;;;;6.70;5.20;;;;;;;17.46;68.82;96258.06;5042409;28;20423;-73
2022/05/03 11:21:40;;;;;;;6.33;5.83;;;;;;;17.72;68.61;96284.63;5037296;28;20473;-73
2022/05/03 11:24:22;;;;;;;7.47;6.77;;;;;;;17.71;69.45;96267.03;5037607;28;20436;-74
2022/05/03 11:26:51;;;;;;;6.40;5.80;;;;;;;17.67;74.04;96270.81;5037139;28;20532;-73
2022/05/03 11:29:18;;;;;;;6.00;5.50;;;;;;;17.41;75.49;96269.13;5037060;28;20528;-73
2022/05/03 11:31:47;;;;;;;6.03;5.53;;;;;;;17.83;74.70;96276.66;5024661;28;20471;-73
2022/05/03 11:34:14;;;;;;;6.23;4.87;;;;;;;17.71;71.12;96272.38;5054632;28;20493;-73
2022/05/03 11:36:46;;;;;;;4.73;4.43;;;;;;;17.49;69.43;96243.94;5037311;28;20488;-73
2022/05/03 11:39:14;;;;;;;7.93;4.50;;;;;;;17.86;70.63;96267.88;5017236;28;20537;-73
2022/05/03 11:41:44;;;;;;;5.93;5.40;;;;;;;17.29;73.01;96243.44;5029288;28;20830;-74
2022/05/03 11:44:11;;;;;;;6.40;5.83;;;;;;;17.58;74.24;96263.09;5036795;28;20440;-73
2022/05/03 11:46:39;;;;;;;6.43;5.83;;;;;;;17.90;74.98;96259.88;5037095;28;20476;-73
2022/05/03 11:49:07;;;;;;;6.77;6.13;;;;;;;18.87;73.87;96264.41;5037179;28;20445;-73
2022/05/03 11:57:21;;;;;;;4.60;4.30;;;;;;;19.53;62.79;96270.16;5042726;28;20444;-73
2022/05/03 11:59:50;;;;;;;5.53;5.00;;;;;;;20.24;65.50;96275.34;5036416;28;20463;-73
2022/05/03 12:02:22;;;;;;;6.03;4.63;;;;;;;19.96;63.50;96278.88;5054668;28;20417;-73
2022/05/03 12:05:04;;;;;;;5.10;4.70;;;;;;;19.58;61.61;96275.13;5036732;28;20937;-73
2022/05/03 12:07:45;;;;;;;3.90;3.60;;;;;;;18.66;56.96;96256.31;5036516;28;20425;-73
2022/05/03 12:10:25;;;;;;;5.63;3.90;;;;;;;19.99;57.16;96275.41;5036446;28;20453;-74
2022/05/03 12:13:27;;;;;;;4.47;4.10;;;;;;;19.63;57.60;96272.06;5036233;28;20539;-74
2022/05/03 12:15:56;;;;;;;3.27;2.90;;;;;;;19.27;53.27;96271.31;5036673;28;21225;-74
2022/05/03 12:18:35;;;;;;;4.03;3.73;;;;;;;20.00;54.45;96246.66;5036143;28;20433;-74
2022/05/03 12:21:02;;;;;;;5.90;4.50;;;;;;;20.13;56.93;96268.47;5036094;28;20473;-74
2022/05/03 12:23:31;;;;;;;5.63;5.13;;;;;;;20.26;60.38;96267.66;5036392;28;20472;-73